Flight Track Log - Related Links

Times and Time Zones

All times are in EDT time to prevent confusion due to time zone crossing. See the EJA962 flight status page for this flight to view local times or setup timezone preferences in your user account.

Time Position Orientation Groundspeed Altitude Reporting Facility
EDT Latitude Longitude Course Direction KTS MPH feet Rate Location/Type
Sun 08:57:04 PM 41.7500 -87.7000 196° South 200 230 3,300  Level Chicago TRACON
Sun 08:59:11 PM 41.6181 -87.7728 202° Southwest 270 311 8,100 2,349 Climbing Chicago Center
Sun 09:00:13 PM 41.5617 -87.8419 223° Southwest 277 319 10,700 2,049 Climbing Chicago Center
Sun 09:01:14 PM 41.5031 -87.9136 222° Southwest 284 327 12,300 1,268 Climbing Chicago Center
Sun 09:02:00 PM 41.1379 -88.1025 196° South  Level FlightAware Approximate
Sun 09:02:16 PM 41.4331 -87.9956 221° Southwest 330 380 13,300  Level Chicago Center
Sun 09:03:17 PM 41.3536 -88.0897 222° Southwest 354 407 14,700 1,415 Climbing Chicago Center
Sun 09:04:19 PM 41.2761 -88.1786 221° Southwest 364 419 16,200 1,561 Climbing Chicago Center
Sun 09:05:20 PM 41.1833 -88.2425 207° Southwest 379 436 17,900 1,707 Climbing Chicago Center
Sun 09:06:22 PM 41.0908 -88.3050 207° Southwest 374 430 19,700 1,512 Climbing Chicago Center
Sun 09:07:23 PM 40.9958 -88.3669 206° Southwest 380 437 21,000 1,268 Climbing Chicago Center
Sun 09:08:25 PM 40.8975 -88.4325 207° Southwest 394 453 22,300 1,463 Climbing Chicago Center
Sun 09:09:26 PM 40.7764 -88.5136 207° Southwest 409 471 24,000 1,475 Climbing Chicago Center
Sun 09:10:27 PM 40.6736 -88.5817 207° Southwest 415 478 25,300 1,317 Climbing Chicago Center
Sun 09:11:29 PM 40.5669 -88.6508 206° Southwest 426 490 26,700 1,171 Climbing Chicago Center
Sun 09:12:30 PM 40.4675 -88.7144 206° Southwest 432 497 27,700 1,131 Climbing Chicago Center
Sun 09:13:31 PM 40.3569 -88.7864 206° Southwest 439 505 29,000 1,317 Climbing Chicago Center
Sun 09:14:33 PM 40.2450 -88.8608 207° Southwest 446 513 30,400 1,610 Climbing Chicago Center
Sun 09:15:34 PM 40.1092 -88.9494 207° Southwest 452 520 32,300 1,670 Climbing Chicago Center
Sun 09:16:28 PM 40.0150 -89.0083 206° Southwest 454 522 33,600 887 Climbing Kansas City Center
Sun 09:17:29 PM 39.8978 -89.0753 204° Southwest 457 526 34,000 585 Climbing Kansas City Center
Sun 09:18:31 PM 39.7719 -89.1406 202° Southwest 477 549 34,800 1,268 Climbing Kansas City Center
Sun 09:19:32 PM 39.6500 -89.2039 202° Southwest 475 547 36,600 1,721 Climbing Kansas City Center
Sun 09:20:33 PM 39.5275 -89.2678 202° Southwest 468 539 38,300 1,770 Climbing Kansas City Center
Sun 09:21:34 PM 39.4106 -89.3267 201° Southwest 456 525 40,200 1,869 Climbing Kansas City Center
Sun 09:22:35 PM 39.2983 -89.3853 202° Southwest 440 506 42,100 1,180 Climbing Kansas City Center
Sun 09:23:36 PM 39.1881 -89.4428 202° Southwest 430 495 42,600 443 Climbing Kansas City Center
Sun 09:24:37 PM 39.0489 -89.5153 202° Southwest 440 506 43,000 197 Climbing Kansas City Center
Sun 09:25:38 PM 38.9294 -89.5758 202° Southwest 459 528 43,000  Level Kansas City Center
Sun 09:26:39 PM 38.8067 -89.6383 202° Southwest 473 544 43,000  Level Kansas City Center
Sun 09:27:40 PM 38.6811 -89.7003 201° Southwest 489 563 43,000  Level Kansas City Center
Sun 09:28:41 PM 38.5569 -89.7633 202° Southwest 482 555 43,000  Level Kansas City Center
Sun 09:29:42 PM 38.4328 -89.8253 201° Southwest 477 549 43,000  Level Kansas City Center
Sun 09:30:43 PM 38.3075 -89.8878 201° Southwest 479 551 43,000  Level Kansas City Center
Sun 09:31:44 PM 38.1847 -89.9500 202° Southwest 475 547 43,000  Level Kansas City Center
Sun 09:32:46 PM 38.0478 -90.0172 201° Southwest 481 554 43,000  Level Kansas City Center
Sun 09:33:47 PM 37.9353 -90.0719 201° Southwest 477 549 43,000  Level Kansas City Center
Sun 09:34:48 PM 37.8131 -90.1353 202° Southwest 474 545 43,000  Level Kansas City Center
Sun 09:35:49 PM 37.6906 -90.1967 202° Southwest 473 544 43,000  Level Kansas City Center
Sun 09:36:50 PM 37.5664 -90.2586 202° Southwest 476 548 43,000  Level Kansas City Center
Sun 09:37:51 PM 37.4428 -90.3167 200° South 476 548 43,000  Level Kansas City Center
Sun 09:38:52 PM 37.3000 -90.3875 202° Southwest 474 545 43,000  Level Kansas City Center
Sun 09:39:53 PM 37.1758 -90.4475 201° Southwest 476 548 43,000  Level Kansas City Center
Sun 09:40:54 PM 37.0525 -90.5061 201° Southwest 476 548 43,000  Level Kansas City Center
Sun 09:41:56 PM 36.9319 -90.5642 201° Southwest 468 539 43,000  Level Kansas City Center
Sun 09:42:57 PM 36.8044 -90.6289 202° Southwest 475 547 43,000  Level Memphis Center
Sun 09:43:57 PM 36.6772 -90.6881 200° South 480 552 43,000  Level Memphis Center
Sun 09:44:57 PM 36.5542 -90.7469 201° Southwest 480 552 43,000  Level Memphis Center
Sun 09:45:57 PM 36.4267 -90.8083 201° Southwest 480 552 43,000  Level Memphis Center
Sun 09:46:57 PM 36.2994 -90.8669 200° South 485 558 43,000  Level Memphis Center
Sun 09:47:57 PM 36.1822 -90.9433 208° Southwest 490 564 43,000  Level Memphis Center
Sun 09:48:57 PM 36.1169 -91.0739 238° Southwest 463 533 43,000  Level Memphis Center
Sun 09:49:57 PM 36.1181 -91.2256 271° West 414 476 43,000  Level Memphis Center
Sun 09:50:57 PM 36.1108 -91.3744 267° West 424 488 43,000  Level Memphis Center
Sun 09:51:57 PM 36.0803 -91.5256 256° West 436 502 43,000  Level Memphis Center
Sun 09:52:57 PM 36.0433 -91.6739 253° West 447 514 43,000  Level Memphis Center
Sun 09:53:57 PM 36.0083 -91.8222 254° West 454 522 43,000  Level Memphis Center
Sun 09:54:57 PM 35.9669 -91.9728 251° West 454 522 43,000  Level Memphis Center
Sun 09:55:57 PM 35.9397 -92.1208 257° West 459 528 43,000  Level Memphis Center
Sun 09:56:57 PM 35.9000 -92.2714 252° West 454 522 43,000  Level Memphis Center
Sun 09:57:57 PM 35.8664 -92.4164 254° West 454 522 43,000  Level Memphis Center
Sun 09:58:57 PM 35.8286 -92.5642 253° West 454 522 43,000  Level Memphis Center
Sun 09:59:57 PM 35.7925 -92.7089 253° West 454 522 43,000  Level Memphis Center
Sun 10:00:57 PM 35.7542 -92.8589 253° West 454 522 43,000  Level Memphis Center
Sun 10:01:57 PM 35.7197 -93.0061 254° West 454 522 43,000  Level Memphis Center
Sun 10:02:57 PM 35.6811 -93.1556 252° West 454 522 43,000  Level Memphis Center
Sun 10:03:57 PM 35.6417 -93.3203 254° West 454 522 43,000  Level Memphis Center
Sun 10:04:57 PM 35.6008 -93.4592 250° West 454 522 43,000  Level Memphis Center
Sun 10:05:57 PM 35.5639 -93.6058 253° West 454 522 43,000  Level Memphis Center
Sun 10:06:57 PM 35.5244 -93.7525 252° West 454 522 43,000  Level Memphis Center
Sun 10:07:57 PM 35.4892 -93.8936 253° West 447 514 43,000  Level Memphis Center
Sun 10:08:57 PM 35.4542 -94.0272 252° West 434 499 43,000  Level Memphis Center
Sun 10:09:57 PM 35.4167 -94.1633 251° West 424 488 43,000  Level Memphis Center
Sun 10:10:57 PM 35.3789 -94.3017 252° West 424 488 43,000  Level Memphis Center
Sun 10:11:57 PM 35.3308 -94.4367 246° West 430 495 43,000  Level Memphis Center
Sun 10:14:09 PM 35.2294 -94.7272 247° West 454 522 43,000  Level Fort Worth Center
Sun 10:15:09 PM 35.1742 -94.8789 246° West 454 522 43,000  Level Fort Worth Center
Sun 10:16:09 PM 35.1250 -95.0225 247° West 459 528 43,000  Level Fort Worth Center
Sun 10:17:09 PM 35.0753 -95.1633 247° West 459 528 43,000  Level Fort Worth Center
Sun 10:18:09 PM 35.0256 -95.3017 246° West 459 528 43,000  Level Fort Worth Center
Sun 10:19:09 PM 34.9756 -95.4397 246° West 459 528 43,000  Level Fort Worth Center
Sun 10:20:09 PM 34.9256 -95.5775 246° West 459 528 43,000  Level Fort Worth Center
Sun 10:21:09 PM 34.9069 -95.7222 261° West 454 522 43,000  Level Fort Worth Center
Sun 10:22:09 PM 34.9689 -95.8528 300° West 414 476 43,000  Level Fort Worth Center
Sun 10:23:09 PM 35.0372 -95.9808 303° West 422 486 43,000  Level Fort Worth Center
Sun 10:24:09 PM 35.1117 -96.1142 304° West 445 512 43,000  Level Fort Worth Center
Sun 10:25:09 PM 35.1819 -96.2450 303° West 463 533 43,000  Level Fort Worth Center
Sun 10:26:09 PM 35.2539 -96.3814 303° West 473 544 43,000  Level Fort Worth Center
Sun 10:28:36 PM 35.4339 -96.7031 305° West 477 549 43,000  Level Kansas City Center
Sun 10:29:38 PM 35.5219 -96.8617 304° West 474 545 43,000  Level Kansas City Center
Sun 10:30:39 PM 35.5981 -96.9903 306° West 472 543 43,000  Level Kansas City Center
Sun 10:31:40 PM 35.6858 -97.1081 313° West 473 544 43,000  Level Kansas City Center
Sun 10:32:41 PM 35.7714 -97.2253 312° West 468 539 43,000  Level Kansas City Center
Sun 10:33:42 PM 35.8603 -97.3361 315° West 461 531 43,000 -148 Level Kansas City Center
Sun 10:34:43 PM 35.9486 -97.4497 314° West 462 532 42,700 -1,082 Descending Kansas City Center
Sun 10:35:44 PM 36.0500 -97.5503 321° Northwest 468 539 40,800 -1,918 Descending Kansas City Center
Sun 10:36:45 PM 36.1628 -97.6269 331° Northwest 464 534 38,800 -2,213 Descending Kansas City Center
Sun 10:37:46 PM 36.3128 -97.6928 341° North 475 547 36,300 -2,508 Descending Kansas City Center
Sun 10:38:47 PM 36.4444 -97.7261 348° North 478 550 33,700 -2,754 Descending Kansas City Center
Sun 10:39:48 PM 36.5794 -97.7200 North 504 580 30,700 -3,295 Descending Kansas City Center
Sun 10:40:49 PM 36.7164 -97.6850 12° North 506 582 27,000 -3,541 Descending Kansas City Center
Sun 10:41:50 PM 36.8489 -97.6497 12° North 493 567 23,500 -3,393 Descending Kansas City Center
Sun 10:42:51 PM 36.9769 -97.6153 12° North 478 550 20,100 -3,148 Descending Kansas City Center
Sun 10:43:52 PM 37.0992 -97.5822 12° North 460 529 17,100 -3,128 Descending Kansas City Center
Sun 10:44:25 PM 37.1744 -97.5625 12° North 420 483 15,200 -2,754 Descending Kansas City Center
Sun 10:44:53 PM 37.2117 -97.5544 10° North 425 489 14,300 -2,000 Descending Kansas City Center
Sun 10:45:25 PM 37.2747 -97.5131 28° Northeast 376 433 13,200 -1,672 Descending Kansas City Center
Sun 10:45:54 PM 37.3028 -97.4931 30° Northeast 375 432 12,600 -1,869 Descending Kansas City Center
Sun 10:46:26 PM 37.3611 -97.4497 31° Northeast 346 398 11,300 -1,967 Descending Kansas City Center
Sun 10:46:55 PM 37.3886 -97.4278 32° Northeast 362 417 10,600 -1,967 Descending Kansas City Center
Sun 10:47:27 PM 37.4397 -97.3956 27° Northeast 318 366 9,300 -1,967 Descending Kansas City Center
Sun 10:47:56 PM 37.4669 -97.3814 22° Northeast 314 361 8,600 -1,900 Descending Kansas City Center
Sun 10:48:27 PM 37.5178 -97.3544 23° Northeast 290 334 7,400 -2,164 Descending Kansas City Center
Sun 10:48:57 PM 37.5564 -97.3342 23° Northeast 292 336 6,400 -2,066 Descending Kansas City Center
Sun 10:49:28 PM 37.5961 -97.3183 18° North 278 320 5,300 -1,967 Descending Kansas City Center
Sun 10:49:58 PM 37.6297 -97.3044 18° North 280 322 4,400 -1,800 Descending Kansas City Center
Sun 10:50:28 PM 37.6689 -97.2886 18° North 276 318 3,500 -1,377 Descending Kansas City Center
Sun 10:50:59 PM 37.7000 -97.3003 343° North 263 303 3,000 -655 Descending Kansas City Center
Sun 10:51:23 PM 37.7108 -97.3297 295° West 209 241 2,900 -492 Descending Kansas City Center
Sun 10:52:00 PM 37.7158 -97.3617 281° West 187 215 2,500 -590 Descending Kansas City Center
Sun 10:52:24 PM 37.7097 -97.3828 250° West 133 153 2,300 -492 Descending Kansas City Center
Sun 10:53:01 PM 37.6953 -97.4019 226° Southwest 157 181 2,000 -545 Descending Kansas City Center
Sun 10:53:30 PM 37.6767 -97.4117 202° Southwest 128 147 1,700 -689 Descending Kansas City Center
Sun 10:54:02 PM 37.6606 -97.4178 197° South 142 163 1,300 -750 Descending Kansas City Center

Login

Don't have an account? Register now (free) for customized features, flight alerts, and more!